createdAt,value
2022-08-17T00:00:01.871Z,27.2
2022-08-17T00:04:11.906Z,23.8
2022-08-17T00:06:13.042Z,25.9
2022-08-17T00:08:16.274Z,26.4
2022-08-17T00:10:19.435Z,27.3
2022-08-17T00:12:41.880Z,26.6
2022-08-17T00:14:28.962Z,28.8
2022-08-17T00:16:52.599Z,26.3
2022-08-17T00:19:01.011Z,26.1
2022-08-17T00:30:57.803Z,27.8
2022-08-17T00:33:11.651Z,31.1
2022-08-17T00:37:07.480Z,24.4
2022-08-17T00:47:26.831Z,25
2022-08-17T00:53:57.084Z,26.1
2022-08-17T00:58:06.521Z,27.6
2022-08-17T01:04:16.188Z,26.4
2022-08-17T01:26:58.544Z,29.1
2022-08-17T01:33:08.552Z,27.4
2022-08-17T01:44:31.516Z,30.3
2022-08-17T01:46:34.880Z,31
2022-08-17T01:48:38.200Z,28.9
2022-08-17T01:50:41.457Z,33.6
2022-08-17T01:52:47.916Z,33.1
2022-08-17T01:58:57.879Z,30.6
2022-08-17T02:05:07.957Z,36.2
2022-08-17T02:07:14.425Z,33
2022-08-17T02:09:17.808Z,32.3
2022-08-17T02:11:21.067Z,36.2
2022-08-17T02:13:24.344Z,32.6
2022-08-17T02:15:27.719Z,32.3
2022-08-17T02:27:51.045Z,33.5
2022-08-17T02:31:57.751Z,31.4
2022-08-17T02:36:07.567Z,42.6
2022-08-17T02:38:10.940Z,34.9
2022-08-17T02:41:17.555Z,33.8
2022-08-17T02:47:27.625Z,35.8
2022-08-17T02:51:37.558Z,31.1
2022-08-17T02:53:40.874Z,32.5
2022-08-17T02:57:47.620Z,33.9
2022-08-17T02:59:50.997Z,34.8
2022-08-17T03:01:54.448Z,33
2022-08-17T03:04:00.818Z,34.4
2022-08-17T03:06:04.217Z,35
2022-08-17T03:08:07.585Z,36.5
2022-08-17T03:10:10.940Z,33.9
2022-08-17T03:12:14.298Z,40.9
2022-08-17T03:14:17.542Z,38.2
2022-08-17T03:16:20.919Z,33.4
2022-08-17T03:18:27.412Z,34.4
2022-08-17T03:20:30.772Z,36.3
2022-08-17T03:22:36.872Z,39.4
2022-08-17T03:24:37.500Z,33.6
2022-08-17T03:26:40.891Z,36.3
2022-08-17T03:28:44.223Z,37.9
2022-08-17T03:32:54.058Z,31.1
2022-08-17T03:34:57.321Z,31.1
2022-08-17T03:37:00.673Z,33.8
2022-08-17T03:38:03.826Z,32.7
2022-08-17T03:40:07.285Z,34.7
2022-08-17T03:42:31.278Z,34.3
2022-08-17T03:44:13.803Z,36.4
2022-08-17T03:46:28.659Z,47.8
2022-08-17T03:48:23.469Z,34.8
2022-08-17T03:50:26.839Z,39.2
2022-08-17T03:52:30.202Z,31.7
2022-08-17T03:54:33.542Z,39.7
2022-08-17T03:56:36.798Z,32.9
2022-08-17T03:58:40.070Z,38.3
2022-08-17T04:00:46.537Z,34.5
2022-08-17T04:02:50.067Z,34.3
2022-08-17T04:04:53.149Z,33.8
2022-08-17T04:06:56.417Z,32.8
2022-08-17T04:11:03.048Z,37.8
2022-08-17T04:15:12.869Z,36.4
2022-08-17T04:17:16.111Z,32.7
2022-08-17T04:21:22.850Z,41.5
2022-08-17T04:27:32.823Z,33.3
2022-08-17T04:31:42.562Z,33.9
2022-08-17T04:36:03.984Z,38.1
2022-08-17T04:40:10.786Z,41.6
2022-08-17T04:42:17.301Z,33.3
2022-08-17T04:44:37.185Z,35
2022-08-17T04:46:23.769Z,39.3
2022-08-17T04:50:30.500Z,39
2022-08-17T04:52:42.916Z,35
2022-08-17T04:54:37.216Z,45.4
2022-08-17T04:56:43.480Z,35.8
2022-08-17T04:58:46.860Z,38.9
2022-08-17T05:00:50.325Z,35.2
2022-08-17T05:02:53.791Z,42.1
2022-08-17T05:04:56.950Z,34.9
2022-08-17T05:07:00.276Z,37.2
2022-08-17T05:09:03.545Z,43.3
2022-08-17T05:11:10.051Z,42
2022-08-17T05:13:13.375Z,43.8
2022-08-17T05:15:16.680Z,43.8
2022-08-17T05:17:20.021Z,40.1
2022-08-17T05:19:23.392Z,35.9
2022-08-17T05:21:26.741Z,35.7
2022-08-17T05:23:39.126Z,43
2022-08-17T05:27:39.950Z,35
2022-08-17T05:29:43.277Z,43.5
2022-08-17T05:30:49.190Z,37.9
2022-08-17T05:32:50.050Z,41.3
2022-08-17T05:34:53.241Z,37.6
2022-08-17T05:36:56.495Z,33.3
2022-08-17T05:39:02.889Z,33.7
2022-08-17T05:41:06.242Z,35.2
2022-08-17T05:43:09.581Z,26.1
2022-08-17T05:45:12.958Z,31.4
2022-08-17T05:47:16.206Z,27.3
2022-08-17T05:51:22.807Z,27.2
2022-08-17T05:53:29.145Z,29.3
2022-08-17T05:59:39.185Z,38.1
2022-08-17T06:01:42.541Z,33.5
2022-08-17T06:03:47.443Z,32.1
2022-08-17T06:07:57.117Z,38.6
2022-08-17T06:10:00.481Z,36.2
2022-08-17T06:12:03.820Z,41.5
2022-08-17T06:14:07.165Z,37.9
2022-08-17T06:16:31.104Z,40.4
2022-08-17T06:18:18.540Z,39.5
2022-08-17T06:20:17.178Z,34.6
2022-08-17T06:22:23.566Z,35.7
2022-08-17T06:24:26.769Z,35.8
2022-08-17T06:26:34.502Z,37.4
2022-08-17T06:27:33.254Z,46.1
2022-08-17T06:29:36.534Z,33.8
2022-08-17T06:31:39.830Z,31.1
2022-08-17T06:33:43.173Z,33
2022-08-17T06:35:49.432Z,33.7
2022-08-17T06:37:52.659Z,30
2022-08-17T06:39:55.996Z,28
2022-08-17T06:41:59.122Z,25.2
2022-08-17T06:44:02.449Z,27.4
2022-08-17T06:46:05.721Z,24.8
2022-08-17T06:50:15.235Z,30.5
2022-08-17T06:52:45.974Z,31.1
2022-08-17T06:56:24.882Z,27.8
2022-08-17T06:58:29.672Z,27.5
2022-08-17T07:02:52.523Z,22
2022-08-17T07:04:40.745Z,34.8
2022-08-17T07:06:43.960Z,24.8
2022-08-17T07:08:47.147Z,24.1
2022-08-17T07:12:53.565Z,26.6
2022-08-17T07:14:56.765Z,21.3
2022-08-17T07:16:59.957Z,21.7
2022-08-17T07:19:06.167Z,26.6
2022-08-17T07:23:12.580Z,20.8
2022-08-17T07:24:29.662Z,26.5
2022-08-17T07:26:18.868Z,22.6
2022-08-17T07:28:22.033Z,21.8
2022-08-17T07:30:25.222Z,23.5
2022-08-17T07:34:34.630Z,29.4
2022-08-17T07:36:37.795Z,26.8
2022-08-17T07:38:40.950Z,27.3
2022-08-17T07:40:44.173Z,22.3
2022-08-17T07:42:47.304Z,20.8
2022-08-17T07:46:56.702Z,19.1
2022-08-17T07:51:02.994Z,18.9
2022-08-17T07:57:12.421Z,18.1
2022-08-17T08:07:31.155Z,18.6
2022-08-17T08:09:34.308Z,16.7
2022-08-17T08:11:41.254Z,16.1
2022-08-17T08:13:40.536Z,21.2
2022-08-17T08:15:54.178Z,17.7
2022-08-17T08:17:50.035Z,19.3
2022-08-17T08:22:16.687Z,18.1
2022-08-17T08:24:19.800Z,18
2022-08-17T08:26:22.946Z,16.9
2022-08-17T08:28:29.091Z,17.7
2022-08-17T08:30:33.072Z,18.4
2022-08-17T08:32:35.305Z,20.4
2022-08-17T08:34:58.907Z,19.2
2022-08-17T08:37:12.668Z,18.7
2022-08-17T08:38:44.629Z,19.7
2022-08-17T08:40:47.752Z,22.7
2022-08-17T08:42:53.880Z,21
2022-08-17T08:45:01.843Z,20.3
2022-08-17T08:47:00.155Z,20.4
2022-08-17T08:49:09.971Z,20.8
2022-08-17T08:51:06.346Z,19.6
2022-08-17T08:57:28.029Z,22
2022-08-17T09:03:42.749Z,21.2
2022-08-17T09:05:31.148Z,19.1
2022-08-17T09:07:34.234Z,22.4
2022-08-17T09:12:01.046Z,18.5
2022-08-17T09:13:46.545Z,27.3
2022-08-17T09:16:52.711Z,23.5
2022-08-17T09:19:01.230Z,23
2022-08-17T09:20:58.860Z,18.8
2022-08-17T09:23:01.925Z,19.4
2022-08-17T09:25:08.031Z,18.3
2022-08-17T09:27:11.108Z,20.1
2022-08-17T09:29:14.130Z,20.1
2022-08-17T09:31:17.259Z,19.3
2022-08-17T09:33:20.241Z,21.9
2022-08-17T09:35:23.312Z,17.6
2022-08-17T09:37:26.405Z,18.5
2022-08-17T09:39:32.520Z,20.8
2022-08-17T09:41:35.492Z,17.3
2022-08-17T09:43:38.518Z,17.4
2022-08-17T09:45:41.526Z,20.3
2022-08-17T09:47:44.582Z,18.7
2022-08-17T09:49:47.593Z,17.1
2022-08-17T09:51:50.619Z,18
2022-08-17T09:54:09.488Z,23.7
2022-08-17T09:55:59.653Z,16
2022-08-17T09:58:02.651Z,18.6
2022-08-17T10:02:08.655Z,19
2022-08-17T10:04:11.635Z,19.3
2022-08-17T10:06:14.675Z,16.9
2022-08-17T10:08:21.846Z,18.4
2022-08-17T10:12:30.144Z,18.6
2022-08-17T10:13:29.662Z,20.1
2022-08-17T10:15:32.653Z,17.5
2022-08-17T10:19:38.612Z,19.5
2022-08-17T10:21:44.629Z,19.6
2022-08-17T10:23:47.614Z,22.4
2022-08-17T10:25:55.191Z,19.6
2022-08-17T10:27:53.584Z,19.5
2022-08-17T10:29:56.585Z,19.3
2022-08-17T10:31:59.581Z,23.2
2022-08-17T10:34:02.607Z,19.8
2022-08-17T10:36:10.773Z,22.5
2022-08-17T10:38:11.609Z,24.2
2022-08-17T10:40:14.736Z,21.5
2022-08-17T10:42:30.369Z,22.7
2022-08-17T10:50:32.667Z,21
2022-08-17T10:54:38.688Z,21.8
2022-08-17T10:56:41.758Z,20.9
2022-08-17T11:06:59.802Z,25.4
2022-08-17T11:09:02.802Z,25.3
2022-08-17T11:10:05.821Z,23.4
2022-08-17T11:12:08.858Z,23.7
2022-08-17T11:14:11.847Z,22.7
2022-08-17T11:16:14.859Z,22.3
2022-08-17T11:18:20.905Z,27.8
2022-08-17T11:20:23.916Z,24.5
2022-08-17T11:22:29.968Z,23.6
2022-08-17T11:34:47.952Z,23.1
2022-08-17T11:40:56.992Z,23.4
2022-08-17T11:42:59.978Z,28.5
2022-08-17T11:45:03.010Z,23.6
2022-08-17T11:47:09.054Z,26.1
2022-08-17T11:49:12.086Z,26
2022-08-17T11:51:15.125Z,24.8
2022-08-17T11:53:18.142Z,22.8
2022-08-17T11:55:34.978Z,27
2022-08-17T11:57:24.158Z,33.4
2022-08-17T11:59:28.716Z,25.6
2022-08-17T12:01:34.730Z,27.9
2022-08-17T12:03:37.746Z,34.8
2022-08-17T12:05:40.745Z,27.6
2022-08-17T12:08:02.290Z,26.5
2022-08-17T12:10:05.278Z,28.8
2022-08-17T12:12:13.335Z,24.5
2022-08-17T12:14:19.214Z,27.6
2022-08-17T12:16:17.254Z,33.8
2022-08-17T12:18:20.264Z,27.4
2022-08-17T12:20:23.318Z,26.7
2022-08-17T12:22:26.328Z,27.8
2022-08-17T12:24:29.349Z,29.8
2022-08-17T12:26:32.408Z,31
2022-08-17T12:28:38.464Z,30.3
2022-08-17T12:32:44.563Z,29.2
2022-08-17T12:43:02.904Z,31.4
2022-08-17T12:45:05.980Z,27.5
2022-08-17T12:47:09.024Z,27.9
2022-08-17T12:49:12.103Z,26.9
2022-08-17T12:51:15.134Z,30
2022-08-17T12:53:18.221Z,29.6
2022-08-17T12:55:21.298Z,29.8
2022-08-17T12:59:30.670Z,31.9
2022-08-17T13:01:33.567Z,33.4
2022-08-17T13:02:36.596Z,30.5
2022-08-17T13:04:39.646Z,31.8
2022-08-17T13:06:42.722Z,34.4
2022-08-17T13:08:45.790Z,28.4
2022-08-17T13:10:51.924Z,31.2
2022-08-17T13:12:54.993Z,30.8
2022-08-17T13:14:58.081Z,38
2022-08-17T13:17:01.223Z,33.8
2022-08-17T13:19:04.200Z,29.5
2022-08-17T13:21:07.291Z,36.9
2022-08-17T13:23:12.542Z,32.8
2022-08-17T13:25:16.482Z,35.9
2022-08-17T13:27:19.573Z,34.5
2022-08-17T13:31:25.752Z,34.8
2022-08-17T13:35:40.089Z,30.1
2022-08-17T13:37:35.240Z,37.2
2022-08-17T13:39:41.383Z,40
2022-08-17T13:41:44.317Z,41.5
2022-08-17T13:43:47.428Z,34.4
2022-08-17T13:45:51.072Z,40.2
2022-08-17T13:47:53.699Z,35.8
2022-08-17T13:49:56.805Z,37.7
2022-08-17T13:51:59.938Z,35.3
2022-08-17T13:54:06.145Z,39.2
2022-08-17T13:56:37.125Z,36.6
2022-08-17T13:58:12.371Z,35.4
2022-08-17T14:01:18.629Z,36.9
2022-08-17T14:03:21.754Z,38.4
2022-08-17T14:11:37.355Z,38.6
2022-08-17T14:23:59.274Z,38.5
2022-08-17T14:26:02.425Z,36.4
2022-08-17T14:28:05.558Z,39.9
2022-08-17T14:30:08.753Z,44.2
2022-08-17T14:32:11.888Z,41.7
2022-08-17T14:34:15.046Z,43.5
2022-08-17T14:36:21.253Z,43.2
2022-08-17T14:40:27.547Z,47.6
2022-08-17T14:42:30.715Z,40.6
2022-08-17T14:44:33.880Z,48.1
2022-08-17T14:46:37.014Z,47.5
2022-08-17T14:48:40.152Z,51.9
2022-08-17T14:50:46.397Z,49.2
2022-08-17T14:52:49.536Z,50
2022-08-17T14:55:55.763Z,46.2
2022-08-17T14:57:58.913Z,48.9
2022-08-17T15:00:02.056Z,48.4
2022-08-17T15:02:05.220Z,50.5
2022-08-17T15:04:11.450Z,51.3
2022-08-17T15:06:14.565Z,49.5
2022-08-17T15:08:17.703Z,45.4
2022-08-17T15:10:20.860Z,49
2022-08-17T15:14:27.160Z,38.3
2022-08-17T15:16:30.316Z,31.8
2022-08-17T15:20:39.640Z,33.1
2022-08-17T15:22:42.808Z,34
2022-08-17T15:24:45.968Z,35.6
2022-08-17T15:26:49.098Z,33
2022-08-17T15:28:54.316Z,34
2022-08-17T15:30:55.417Z,32.1
2022-08-17T15:33:01.586Z,32.7
2022-08-17T15:35:04.721Z,31.2
2022-08-17T15:37:07.866Z,30
2022-08-17T15:39:10.984Z,27.4
2022-08-17T15:41:14.128Z,27.9
2022-08-17T15:45:20.379Z,35.8
2022-08-17T15:49:29.661Z,33.6
2022-08-17T15:51:32.764Z,38.2
2022-08-17T15:58:02.757Z,41.3
2022-08-17T16:00:08.908Z,35.4
2022-08-17T16:02:12.096Z,39.2
2022-08-17T16:04:30.496Z,36.2
2022-08-17T16:06:18.253Z,38.8
2022-08-17T16:10:33.975Z,36.3
2022-08-17T16:12:27.679Z,43
2022-08-17T16:14:35.258Z,48.2
2022-08-17T16:16:36.982Z,46.7
2022-08-17T16:18:40.104Z,39.7
2022-08-17T16:20:43.247Z,51.5
2022-08-17T16:22:46.468Z,43.6
2022-08-17T16:24:57.026Z,41
2022-08-17T16:26:52.652Z,41
2022-08-17T16:28:58.835Z,44.3
2022-08-17T16:31:01.972Z,45.3
2022-08-17T16:33:05.143Z,39.7
2022-08-17T16:35:08.290Z,43.2
2022-08-17T16:41:17.725Z,44.5
2022-08-17T16:45:27.090Z,50.9
2022-08-17T16:47:30.239Z,43.8
2022-08-17T16:48:37.962Z,44.7
2022-08-17T16:50:39.253Z,46
2022-08-17T16:52:39.637Z,50
2022-08-17T16:54:42.814Z,40.9
2022-08-17T16:56:49.026Z,50.8
2022-08-17T16:58:52.176Z,46.8
2022-08-17T17:00:55.415Z,50
2022-08-17T17:02:58.511Z,43.5
2022-08-17T17:05:01.628Z,45
2022-08-17T17:07:15.036Z,39.2
2022-08-17T17:09:08.043Z,43.4
2022-08-17T17:11:14.213Z,40.5
2022-08-17T17:13:17.336Z,34.8
2022-08-17T17:15:23.636Z,36.7
2022-08-17T17:17:23.654Z,35
2022-08-17T17:19:34.962Z,37.8
2022-08-17T17:21:30.014Z,40.5
2022-08-17T17:23:33.148Z,34.6
2022-08-17T17:25:39.374Z,40.6
2022-08-17T17:27:42.567Z,36.2
2022-08-17T17:31:48.874Z,43.3
2022-08-17T17:37:58.319Z,33.2
2022-08-17T17:40:04.575Z,36.1
2022-08-17T17:42:07.784Z,32.9
2022-08-17T17:44:10.814Z,35.8
2022-08-17T17:45:13.888Z,38.8
2022-08-17T17:47:17.064Z,38
2022-08-17T17:53:41.732Z,47.4
2022-08-17T17:55:34.262Z,35.1
2022-08-17T17:57:37.412Z,36.8
2022-08-17T17:59:44.114Z,41.8
2022-08-17T18:01:43.794Z,36.3
2022-08-17T18:03:46.918Z,34.9
2022-08-17T18:05:50.087Z,40
2022-08-17T18:07:56.302Z,45.9
2022-08-17T18:10:01.125Z,34.9
2022-08-17T18:12:02.763Z,39.9
2022-08-17T18:22:21.765Z,42.1
2022-08-17T18:26:28.122Z,39.3
2022-08-17T18:28:31.280Z,39.8
2022-08-17T18:30:34.578Z,33.2
2022-08-17T18:32:37.864Z,30.9
2022-08-17T18:34:47.636Z,32.3
2022-08-17T18:36:47.553Z,37
2022-08-17T18:38:50.742Z,39.7
2022-08-17T18:40:53.995Z,34.7
2022-08-17T18:41:57.158Z,38.7
2022-08-17T18:44:00.513Z,35.6
2022-08-17T18:46:03.762Z,35.8
2022-08-17T18:48:06.952Z,42.4
2022-08-17T18:50:13.244Z,40.3
2022-08-17T18:52:16.592Z,33.7
2022-08-17T18:54:19.859Z,37.4
2022-08-17T18:56:23.135Z,39.5
2022-08-17T18:58:26.292Z,40.6
2022-08-17T19:00:29.612Z,41.6
2022-08-17T19:02:45.253Z,43.8
2022-08-17T19:04:39.152Z,49
2022-08-17T19:06:42.390Z,53.9
2022-08-17T19:08:45.698Z,51.7
2022-08-17T19:10:48.905Z,51.9
2022-08-17T19:25:15.236Z,47
2022-08-17T19:27:18.079Z,52
2022-08-17T19:29:22.367Z,46.8
2022-08-17T19:31:24.561Z,41.6
2022-08-17T19:33:31.060Z,53.8
2022-08-17T19:35:34.300Z,46.3
2022-08-17T19:37:37.588Z,38.8
2022-08-17T19:40:01.497Z,41.8
2022-08-17T19:42:04.723Z,40.5
2022-08-17T19:44:07.837Z,41.9
2022-08-17T19:48:17.216Z,37.7
2022-08-17T19:56:29.920Z,49.2
2022-08-17T20:00:39.357Z,42.6
2022-08-17T20:06:48.881Z,35.3
2022-08-17T20:08:52.063Z,43.3
2022-08-17T20:10:55.417Z,35.2
2022-08-17T20:12:58.482Z,40.9
2022-08-17T20:15:04.745Z,42.1
2022-08-17T20:17:08.028Z,40.8
2022-08-17T20:19:11.154Z,40.2
2022-08-17T20:21:20.341Z,42.8
2022-08-17T20:23:17.752Z,35.1
2022-08-17T20:25:30.168Z,42.2
2022-08-17T20:27:31.803Z,44
2022-08-17T20:29:37.110Z,46.2
2022-08-17T20:31:33.319Z,39.7
2022-08-17T20:33:36.497Z,38.9
2022-08-17T20:34:39.600Z,38.6
2022-08-17T20:36:42.777Z,42.4
2022-08-17T20:40:49.231Z,37.4
2022-08-17T20:42:55.397Z,35.1
2022-08-17T20:44:58.577Z,39.2
2022-08-17T20:47:01.765Z,35.8
2022-08-17T20:51:08.077Z,34.5
2022-08-17T20:55:17.295Z,40.4
2022-08-17T20:57:20.685Z,31.8
2022-08-17T21:05:34.243Z,33
2022-08-17T21:13:49.461Z,31.8
2022-08-17T21:31:21.705Z,29.4
2022-08-17T21:33:24.889Z,26.9
2022-08-17T21:35:28.097Z,26
2022-08-17T21:37:31.399Z,28.4
2022-08-17T21:39:37.796Z,26.9
2022-08-17T21:41:41.052Z,29.2
2022-08-17T21:45:47.681Z,30.9
2022-08-17T21:51:57.610Z,34.2
2022-08-17T21:56:07.291Z,27.3
2022-08-17T21:58:14.732Z,30.8
2022-08-17T22:00:13.891Z,38.9
2022-08-17T22:02:17.161Z,28.6
2022-08-17T22:04:20.404Z,26.9
2022-08-17T22:06:23.758Z,28.8
2022-08-17T22:08:30.073Z,23.8
2022-08-17T22:10:33.598Z,25.6
2022-08-17T22:12:36.747Z,23.8
2022-08-17T22:14:53.065Z,33.9
2022-08-17T22:16:43.403Z,33.4
2022-08-17T22:18:46.743Z,24.3
2022-08-17T22:20:50.089Z,31
2022-08-17T22:22:56.541Z,28.5
2022-08-17T22:24:59.855Z,29.6
2022-08-17T22:27:03.304Z,29.2
2022-08-17T22:28:06.448Z,27.1
2022-08-17T22:36:22.895Z,30.3
2022-08-17T22:38:26.230Z,29.4
2022-08-17T22:40:29.630Z,25.9
2022-08-17T22:42:32.953Z,25.5
2022-08-17T22:44:36.255Z,29.1
2022-08-17T22:46:39.599Z,30.4
2022-08-17T22:48:42.927Z,32.5
2022-08-17T22:50:49.307Z,30
2022-08-17T22:52:52.642Z,29.6
2022-08-17T22:54:56.004Z,27
2022-08-17T22:56:59.339Z,33.4
2022-08-17T22:59:02.757Z,30.6
2022-08-17T23:03:13.957Z,31.4
2022-08-17T23:05:15.786Z,29.1
2022-08-17T23:07:19.060Z,34.2
2022-08-17T23:09:22.439Z,28.7
2022-08-17T23:11:42.935Z,24.9
2022-08-17T23:13:29.075Z,27.4
2022-08-17T23:15:32.450Z,28.6
2022-08-17T23:17:37.585Z,27.5
2022-08-17T23:19:42.276Z,26.7
2022-08-17T23:21:45.620Z,23.1
2022-08-17T23:23:48.948Z,21.6
2022-08-17T23:26:07.225Z,19.7
2022-08-17T23:32:20.415Z,25.8
2022-08-17T23:34:23.735Z,20.8
2022-08-17T23:36:27.105Z,19.6
2022-08-17T23:40:34.106Z,21.7
2022-08-17T23:42:39.846Z,21.4
2022-08-17T23:44:40.545Z,22.4
2022-08-17T23:46:47.498Z,19.5
2022-08-17T23:52:57.503Z,23.2
2022-08-17T23:55:00.836Z,27.4
2022-08-17T23:57:04.235Z,25.7
2022-08-17T23:59:07.563Z,23.2
